Terminal Aerodrome Forecast
Issued by NWS Green Bay, WI

Home | Current Version | Previous Version | Text Only | Print | Product List | Glossary Off
Versions: 1 2 3 4 5 6 7 8 9 10 11 12 13 14 15 16 17 18 19 20

000
FTUS43 KGRB 272337
TAFGRB
TAF
KGRB 272337Z 2800/2824 29007KT P6SM -SHRA SCT020 OVC050
      TEMPO 2800/2802 BKN020
     FM280200 31006KT P6SM VCSH SCT015 OVC050
      TEMPO 2806/2810 4SM BR BKN015
     FM281000 36006KT P6SM VCSH BKN015 OVC040
     FM281500 04014G22KT P6SM OVC025
     FM282200 04013G20KT P6SM BKN035 BKN090=

USA.gov is the U.S. government's official web portal to all federal, state and local government web resources and services.